createdAt,value
2022-11-20T00:01:34.170Z,82.05
2022-11-20T00:04:02.524Z,82.44
2022-11-20T00:06:30.666Z,82.73
2022-11-20T00:09:01.439Z,82.43
2022-11-20T00:11:31.681Z,82.39
2022-11-20T00:14:01.788Z,82.30
2022-11-20T00:16:32.345Z,82.39
2022-11-20T00:19:00.198Z,82.48
2022-11-20T00:21:29.819Z,82.41
2022-11-20T00:23:58.519Z,82.93
2022-11-20T00:26:28.279Z,83.55
2022-11-20T00:28:58.913Z,83.44
2022-11-20T00:31:27.017Z,83.35
2022-11-20T00:33:55.090Z,83.13
2022-11-20T00:36:25.883Z,82.97
2022-11-20T00:38:55.282Z,82.54
2022-11-20T00:41:23.972Z,82.51
2022-11-20T00:43:56.175Z,82.36
2022-11-20T00:46:26.103Z,82.44
2022-11-20T00:48:57.639Z,82.69
2022-11-20T00:51:29.251Z,83.03
2022-11-20T00:53:58.757Z,82.86
2022-11-20T00:56:27.408Z,82.71
2022-11-20T00:59:01.999Z,82.65
2022-11-20T01:01:33.362Z,82.73
2022-11-20T01:04:05.383Z,82.56
2022-11-20T01:06:39.379Z,82.49
2022-11-20T01:09:14.083Z,82.59
2022-11-20T01:11:45.281Z,83.17
2022-11-20T01:14:17.757Z,83.37
2022-11-20T01:16:49.328Z,83.23
2022-11-20T01:19:25.210Z,83.04
2022-11-20T01:21:55.057Z,83.22
2022-11-20T01:24:26.373Z,82.96
2022-11-20T01:26:57.659Z,83.04
2022-11-20T01:29:25.993Z,82.80
2022-11-20T01:31:53.893Z,82.91
2022-11-20T01:34:23.469Z,83.11
2022-11-20T01:36:51.613Z,83.31
2022-11-20T01:39:25.528Z,83.52
2022-11-20T01:42:14.098Z,83.45
2022-11-20T01:44:53.185Z,83.36
2022-11-20T01:47:44.634Z,83.38
2022-11-20T01:50:30.059Z,83.07
2022-11-20T01:53:06.121Z,83.12
2022-11-20T01:55:38.825Z,83.26
2022-11-20T01:58:07.285Z,83.73
2022-11-20T02:00:35.169Z,83.70
2022-11-20T02:03:08.366Z,83.90
2022-11-20T02:05:42.894Z,84.27
2022-11-20T02:08:10.811Z,83.98
2022-11-20T02:10:38.825Z,83.50
2022-11-20T02:13:25.455Z,83.29
2022-11-20T02:15:53.990Z,83.60
2022-11-20T02:18:23.226Z,83.48
2022-11-20T02:21:20.262Z,83.72
2022-11-20T02:23:54.756Z,84.15
2022-11-20T02:26:24.263Z,84.41
2022-11-20T02:28:52.399Z,84.39
2022-11-20T02:31:20.168Z,84.21
2022-11-20T02:33:47.953Z,84.12
2022-11-20T02:36:17.284Z,83.90
2022-11-20T02:38:45.145Z,83.94
2022-11-20T02:41:12.935Z,83.95
2022-11-20T02:43:40.809Z,83.77
2022-11-20T02:46:09.491Z,84.05
2022-11-20T02:48:37.358Z,84.29
2022-11-20T02:51:05.320Z,84.23
2022-11-20T02:53:33.103Z,85.13
2022-11-20T02:56:00.957Z,85.02
2022-11-20T02:58:28.699Z,84.83
2022-11-20T03:00:56.513Z,84.98
2022-11-20T03:03:24.403Z,84.69
2022-11-20T03:05:52.325Z,84.19
2022-11-20T03:08:20.217Z,84.29
2022-11-20T03:10:48.027Z,84.12
2022-11-20T03:13:15.841Z,84.01
2022-11-20T03:15:43.568Z,84.19
2022-11-20T03:18:11.578Z,84.47
2022-11-20T03:20:42.369Z,84.89
2022-11-20T03:23:13.692Z,85.05
2022-11-20T03:25:41.512Z,84.99
2022-11-20T03:28:09.349Z,84.86
2022-11-20T03:30:37.192Z,84.75
2022-11-20T03:33:05.008Z,84.46
2022-11-20T03:35:32.748Z,84.61
2022-11-20T03:38:00.511Z,84.80
2022-11-20T03:40:28.315Z,85.26
2022-11-20T03:42:56.237Z,85.33
2022-11-20T03:45:24.084Z,85.45
2022-11-20T03:47:52.689Z,85.43
2022-11-20T03:50:24.125Z,85.45
2022-11-20T03:52:52.150Z,85.63
2022-11-20T03:55:20.054Z,85.41
2022-11-20T03:57:47.926Z,85.53
2022-11-20T04:00:16.185Z,85.36
2022-11-20T04:02:43.991Z,85.67
2022-11-20T04:05:11.742Z,85.98
2022-11-20T04:07:39.635Z,85.92
2022-11-20T04:10:07.818Z,85.85
2022-11-20T04:12:35.605Z,85.83
2022-11-20T04:15:03.592Z,85.59
2022-11-20T04:17:31.431Z,85.57
2022-11-20T04:19:59.162Z,85.56
2022-11-20T04:22:26.921Z,85.37
2022-11-20T04:24:54.714Z,85.78
2022-11-20T04:27:22.503Z,85.82
2022-11-20T04:29:50.400Z,85.86
2022-11-20T04:32:18.224Z,85.78
2022-11-20T04:34:46.034Z,85.62
2022-11-20T04:37:13.816Z,85.59
2022-11-20T04:39:41.662Z,85.61
2022-11-20T04:42:29.713Z,85.51
2022-11-20T04:44:58.444Z,85.60
2022-11-20T04:47:26.429Z,85.57
2022-11-20T04:49:57.804Z,85.76
2022-11-20T04:54:28.226Z,86.10
2022-11-20T04:56:56.025Z,86.04
2022-11-20T04:59:24.064Z,85.80
2022-11-20T05:01:52.299Z,85.57
2022-11-20T05:04:20.237Z,85.46
2022-11-20T05:06:48.023Z,85.33
2022-11-20T05:09:15.769Z,85.24
2022-11-20T05:11:43.876Z,85.06
2022-11-20T05:14:12.778Z,85.10
2022-11-20T05:16:40.581Z,85.27
2022-11-20T05:19:08.672Z,85.52
2022-11-20T05:21:36.531Z,85.80
2022-11-20T05:24:05.686Z,85.52
2022-11-20T05:26:33.783Z,85.33
2022-11-20T05:29:01.754Z,85.19
2022-11-20T05:31:29.687Z,85.03
2022-11-20T05:33:58.250Z,84.96
2022-11-20T05:36:26.506Z,85.00
2022-11-20T05:49:02.376Z,85.36
2022-11-20T05:51:30.235Z,85.31
2022-11-20T05:54:01.469Z,85.22
2022-11-20T05:56:29.305Z,85.29
2022-11-20T05:58:57.237Z,84.93
2022-11-20T06:01:26.845Z,84.81
2022-11-20T06:03:55.516Z,84.72
2022-11-20T06:06:24.016Z,84.97
2022-11-20T06:08:51.965Z,85.35
2022-11-20T06:11:20.255Z,85.36
2022-11-20T06:13:48.798Z,85.51
2022-11-20T06:16:19.898Z,85.40
2022-11-20T06:18:49.316Z,85.14
2022-11-20T06:21:20.354Z,84.93
2022-11-20T06:23:49.395Z,84.60
2022-11-20T06:26:20.062Z,84.48
2022-11-20T06:28:48.464Z,84.97
2022-11-20T06:31:20.140Z,84.74
2022-11-20T06:33:49.208Z,84.52
2022-11-20T06:36:18.802Z,84.86
2022-11-20T06:38:46.986Z,85.00
2022-11-20T06:41:18.075Z,85.20
2022-11-20T06:43:46.053Z,85.09
2022-11-20T06:46:15.539Z,84.98
2022-11-20T06:48:43.337Z,84.68
2022-11-20T06:51:11.312Z,84.64
2022-11-20T06:53:39.600Z,84.53
2022-11-20T06:56:08.494Z,84.60
2022-11-20T06:58:38.079Z,84.84
2022-11-20T07:01:10.049Z,85.11
2022-11-20T07:03:38.382Z,84.98
2022-11-20T07:06:07.063Z,85.25
2022-11-20T07:08:35.016Z,85.35
2022-11-20T07:11:05.837Z,85.21
2022-11-20T07:13:33.995Z,85.36
2022-11-20T07:16:04.964Z,85.31
2022-11-20T07:18:32.770Z,85.21
2022-11-20T07:21:06.198Z,85.30
2022-11-20T07:23:34.320Z,85.28
2022-11-20T07:26:10.520Z,85.48
2022-11-20T07:28:39.391Z,85.74
2022-11-20T07:31:08.590Z,86.03
2022-11-20T07:33:36.439Z,86.09
2022-11-20T07:36:04.708Z,86.06
2022-11-20T07:38:32.488Z,86.02
2022-11-20T07:41:02.679Z,86.13
2022-11-20T07:43:31.040Z,86.17
2022-11-20T07:45:59.956Z,85.91
2022-11-20T07:48:27.942Z,86.03
2022-11-20T07:50:59.521Z,85.83
2022-11-20T07:53:27.485Z,85.70
2022-11-20T07:57:28.416Z,85.98
2022-11-20T07:59:56.489Z,86.11
2022-11-20T08:02:24.415Z,86.06
2022-11-20T08:04:52.906Z,85.92
2022-11-20T08:07:20.920Z,85.98
2022-11-20T08:09:48.699Z,85.75
2022-11-20T08:13:58.195Z,85.85
2022-11-20T08:16:26.066Z,85.52
2022-11-20T08:18:57.546Z,85.65
2022-11-20T08:21:30.870Z,85.72
2022-11-20T08:24:01.919Z,85.55
2022-11-20T08:26:30.951Z,84.82
2022-11-20T08:28:59.637Z,85.22
2022-11-20T08:31:28.931Z,85.40
2022-11-20T08:33:57.262Z,84.97
2022-11-20T08:36:30.047Z,85.11
2022-11-20T08:39:02.499Z,84.69
2022-11-20T08:41:37.254Z,84.42
2022-11-20T08:44:08.050Z,83.93
2022-11-20T08:46:39.419Z,83.64
2022-11-20T08:49:12.672Z,83.56
2022-11-20T08:51:41.153Z,83.58
2022-11-20T08:54:12.056Z,83.36
2022-11-20T08:56:43.399Z,83.68
2022-11-20T09:02:02.522Z,83.40
2022-11-20T09:04:30.343Z,84.01
2022-11-20T09:06:58.228Z,82.53
2022-11-20T09:09:26.311Z,83.56
2022-11-20T09:11:54.197Z,83.08
2022-11-20T09:14:22.509Z,83.09
2022-11-20T09:16:50.305Z,82.85
2022-11-20T09:19:35.025Z,82.01
2022-11-20T09:22:04.017Z,82.15
2022-11-20T09:24:31.838Z,82.87
2022-11-20T09:27:03.147Z,81.51
2022-11-20T09:29:31.126Z,81.34
2022-11-20T09:31:58.914Z,80.74
2022-11-20T09:34:26.655Z,79.62
2022-11-20T09:36:54.491Z,78.72
2022-11-20T09:39:22.389Z,79.80
2022-11-20T09:42:14.423Z,80.01
2022-11-20T09:45:03.137Z,79.31
2022-11-20T09:47:37.101Z,79.86
2022-11-20T09:50:48.987Z,79.70
2022-11-20T09:53:35.097Z,79.32
2022-11-20T09:56:05.796Z,78.95
2022-11-20T09:58:43.934Z,79.06
2022-11-20T10:01:16.770Z,78.47
2022-11-20T10:04:01.987Z,78.38
2022-11-20T10:07:04.064Z,76.34
2022-11-20T10:09:45.550Z,75.70
2022-11-20T10:12:22.396Z,77.72
2022-11-20T10:14:59.958Z,78.52
2022-11-20T10:17:56.554Z,77.70
2022-11-20T10:20:36.589Z,75.66
2022-11-20T10:23:26.481Z,77.52
2022-11-20T10:26:03.551Z,76.53
2022-11-20T10:29:11.013Z,75.61
2022-11-20T10:31:42.339Z,75.56
2022-11-20T10:34:24.964Z,73.03
2022-11-20T10:36:57.470Z,73.88
2022-11-20T10:39:47.248Z,74.84
2022-11-20T10:42:22.470Z,72.36
2022-11-20T10:45:05.651Z,74.59
2022-11-20T10:47:34.635Z,73.41
2022-11-20T10:50:09.953Z,74.37
2022-11-20T10:53:00.882Z,74.63
2022-11-20T10:55:46.122Z,75.39
2022-11-20T10:58:46.593Z,75.29
2022-11-20T11:01:24.578Z,73.78
2022-11-20T11:03:54.035Z,73.11
2022-11-20T11:06:43.783Z,73.17
2022-11-20T11:09:26.461Z,73.71
2022-11-20T11:11:54.171Z,73.17
2022-11-20T11:14:21.992Z,73.64
2022-11-20T11:16:57.973Z,73.01
2022-11-20T11:19:26.302Z,72.62
2022-11-20T11:21:58.217Z,72.13
2022-11-20T11:24:46.739Z,74.52
2022-11-20T11:27:18.779Z,74.27
2022-11-20T11:29:47.995Z,74.69
2022-11-20T11:32:20.022Z,73.07
2022-11-20T11:35:05.956Z,72.12
2022-11-20T11:37:36.912Z,72.10
2022-11-20T11:43:00.212Z,72.46
2022-11-20T11:45:28.663Z,72.71
2022-11-20T11:48:04.465Z,73.72
2022-11-20T11:50:32.729Z,74.47
2022-11-20T11:53:18.130Z,75.00
2022-11-20T11:55:58.091Z,74.50
2022-11-20T11:58:49.602Z,74.07
2022-11-20T12:01:32.496Z,74.25
2022-11-20T12:04:35.027Z,74.76
2022-11-20T12:09:54.756Z,74.09
2022-11-20T12:12:09.903Z,74.12
2022-11-20T12:14:31.721Z,74.61
2022-11-20T12:16:38.437Z,75.01
2022-11-20T12:18:42.756Z,75.24
2022-11-20T12:21:11.698Z,75.50
2022-11-20T12:23:26.765Z,74.37
2022-11-20T12:25:34.411Z,74.52
2022-11-20T12:32:58.225Z,72.63
2022-11-20T12:35:11.325Z,72.22
2022-11-20T12:37:29.263Z,72.22
2022-11-20T12:40:02.975Z,73.23
2022-11-20T12:42:38.831Z,73.54
2022-11-20T12:45:12.246Z,73.53
2022-11-20T12:47:57.315Z,73.06
2022-11-20T12:50:05.806Z,72.57
2022-11-20T12:52:26.712Z,73.73
2022-11-20T12:54:47.665Z,72.99
2022-11-20T12:57:30.903Z,72.80
2022-11-20T12:59:59.426Z,72.73
2022-11-20T13:02:23.862Z,71.27
2022-11-20T13:05:04.046Z,71.63
2022-11-20T13:07:13.253Z,71.49
2022-11-20T13:09:19.531Z,71.64
2022-11-20T13:12:01.620Z,71.23
2022-11-20T13:14:32.187Z,71.10
2022-11-20T13:17:00.919Z,71.31
2022-11-20T13:19:11.797Z,71.48
2022-11-20T13:21:33.426Z,71.93
2022-11-20T13:23:34.911Z,72.29
2022-11-20T13:25:38.505Z,72.39
2022-11-20T13:27:49.395Z,72.74
2022-11-20T13:30:18.546Z,73.30
2022-11-20T13:32:21.672Z,73.64
2022-11-20T13:34:27.716Z,73.63
2022-11-20T13:36:30.675Z,73.65
2022-11-20T13:38:45.330Z,73.42
2022-11-20T13:41:23.874Z,73.40
2022-11-20T13:43:41.451Z,73.47
2022-11-20T13:45:43.087Z,73.62
2022-11-20T13:47:52.188Z,73.64
2022-11-20T13:49:56.190Z,73.70
2022-11-20T13:52:22.551Z,73.78
2022-11-20T13:54:52.251Z,73.82
2022-11-20T13:57:20.419Z,74.03
2022-11-20T13:59:55.179Z,73.80
2022-11-20T14:01:56.783Z,74.50
2022-11-20T14:04:06.028Z,75.13
2022-11-20T14:06:31.905Z,75.39
2022-11-20T14:08:40.527Z,75.83
2022-11-20T14:10:42.093Z,75.81
2022-11-20T14:12:43.620Z,75.83
2022-11-20T14:14:53.430Z,75.81
2022-11-20T14:17:22.546Z,75.63
2022-11-20T14:19:28.140Z,75.83
2022-11-20T14:21:30.257Z,75.85
2022-11-20T14:23:31.739Z,75.84
2022-11-20T14:25:33.324Z,76.04
2022-11-20T14:27:37.922Z,76.46
2022-11-20T14:29:41.045Z,76.98
2022-11-20T14:31:44.734Z,76.91
2022-11-20T14:33:47.510Z,77.10
2022-11-20T14:35:55.055Z,77.23
2022-11-20T14:37:57.915Z,77.41
2022-11-20T14:40:01.020Z,77.43
2022-11-20T14:42:14.956Z,77.32
2022-11-20T14:44:16.407Z,77.66
2022-11-20T14:46:18.202Z,77.77
2022-11-20T14:48:23.139Z,77.88
2022-11-20T14:50:27.485Z,77.93
2022-11-20T14:52:29.021Z,78.24
2022-11-20T14:54:31.153Z,78.40
2022-11-20T14:56:32.584Z,78.72
2022-11-20T14:58:34.490Z,78.59
2022-11-20T15:00:36.041Z,78.99
2022-11-20T15:02:45.629Z,78.76
2022-11-20T15:04:56.904Z,78.61
2022-11-20T15:07:00.154Z,78.66
2022-11-20T15:09:03.919Z,78.66
2022-11-20T15:11:21.474Z,78.50
2022-11-20T15:13:33.450Z,78.38
2022-11-20T15:15:49.866Z,78.32
2022-11-20T15:17:51.458Z,78.72
2022-11-20T15:19:54.182Z,78.86
2022-11-20T15:21:55.897Z,79.35
2022-11-20T15:23:57.771Z,79.31
2022-11-20T15:25:59.174Z,79.16
2022-11-20T15:28:00.601Z,79.08
2022-11-20T15:30:02.202Z,79.16
2022-11-20T15:32:05.930Z,78.91
2022-11-20T15:34:14.840Z,78.99
2022-11-20T15:36:16.235Z,79.17
2022-11-20T15:38:17.694Z,79.30
2022-11-20T15:40:19.076Z,79.85
2022-11-20T15:42:20.703Z,79.66
2022-11-20T15:44:22.467Z,79.43
2022-11-20T15:46:28.109Z,79.35
2022-11-20T15:48:34.757Z,79.58
2022-11-20T15:50:39.564Z,79.47
2022-11-20T15:52:42.284Z,79.34
2022-11-20T15:54:43.935Z,79.34
2022-11-20T15:56:45.348Z,79.12
2022-11-20T15:58:46.851Z,78.99
2022-11-20T16:00:48.316Z,79.44
2022-11-20T16:02:49.719Z,79.33
2022-11-20T16:04:51.171Z,79.33
2022-11-20T16:06:52.698Z,79.51
2022-11-20T16:08:54.154Z,80.22
2022-11-20T16:10:55.619Z,80.25
2022-11-20T16:13:15.966Z,79.82
2022-11-20T16:15:36.297Z,79.44
2022-11-20T16:17:43.768Z,79.46
2022-11-20T16:19:45.179Z,79.54
2022-11-20T16:21:46.885Z,79.36
2022-11-20T16:23:48.452Z,79.50
2022-11-20T16:25:50.842Z,79.60
2022-11-20T16:27:52.263Z,79.94
2022-11-20T16:29:53.593Z,80.41
2022-11-20T16:31:55.036Z,80.96
2022-11-20T16:33:58.783Z,80.64
2022-11-20T16:36:10.595Z,80.55
2022-11-20T16:38:12.084Z,80.69
2022-11-20T16:40:13.733Z,80.53
2022-11-20T16:42:15.388Z,80.65
2022-11-20T16:44:16.781Z,81.01
2022-11-20T16:46:20.708Z,81.17
2022-11-20T16:48:22.180Z,81.18
2022-11-20T16:50:23.547Z,81.37
2022-11-20T16:52:24.979Z,81.34
2022-11-20T16:54:26.736Z,81.39
2022-11-20T16:56:28.618Z,81.23
2022-11-20T16:58:30.074Z,81.25
2022-11-20T17:00:31.550Z,81.26
2022-11-20T17:02:33.040Z,81.80
2022-11-20T17:04:34.473Z,81.84
2022-11-20T17:06:40.020Z,82.25
2022-11-20T17:08:41.647Z,82.14
2022-11-20T17:10:43.227Z,82.14
2022-11-20T17:12:44.878Z,81.94
2022-11-20T17:14:46.372Z,81.63
2022-11-20T17:16:47.799Z,81.97
2022-11-20T17:18:49.751Z,81.95
2022-11-20T17:20:52.011Z,81.91
2022-11-20T17:22:53.426Z,81.86
2022-11-20T17:24:54.861Z,82.06
2022-11-20T17:26:56.308Z,81.90
2022-11-20T17:28:59.312Z,81.86
2022-11-20T17:31:02.278Z,81.63
2022-11-20T17:33:03.778Z,81.54
2022-11-20T17:35:05.645Z,82.36
2022-11-20T17:37:07.033Z,81.42
2022-11-20T17:39:08.509Z,81.57
2022-11-20T17:41:15.283Z,81.92
2022-11-20T17:43:17.347Z,82.13
2022-11-20T17:45:18.795Z,82.27
2022-11-20T17:47:20.188Z,82.55
2022-11-20T17:49:24.112Z,82.65
2022-11-20T17:51:28.347Z,82.59
2022-11-20T17:53:34.140Z,82.73
2022-11-20T17:55:56.037Z,82.61
2022-11-20T17:58:02.195Z,82.77
2022-11-20T18:00:04.002Z,83.01
2022-11-20T18:02:05.544Z,82.58
2022-11-20T18:04:06.958Z,82.55
2022-11-20T18:06:22.681Z,82.55
2022-11-20T18:08:24.070Z,82.89
2022-11-20T18:10:25.538Z,82.72
2022-11-20T18:12:27.039Z,82.84
2022-11-20T18:14:31.728Z,82.92
2022-11-20T18:16:39.101Z,82.84
2022-11-20T18:18:40.573Z,82.94
2022-11-20T18:20:42.098Z,82.58
2022-11-20T18:22:44.024Z,82.66
2022-11-20T18:24:45.644Z,82.59
2022-11-20T18:26:47.489Z,82.56
2022-11-20T18:28:49.531Z,82.24
2022-11-20T18:30:51.004Z,82.50
2022-11-20T18:32:52.512Z,82.53
2022-11-20T18:34:53.894Z,83.03
2022-11-20T18:36:55.487Z,83.70
2022-11-20T18:38:59.467Z,83.27
2022-11-20T18:41:03.928Z,83.34
2022-11-20T18:43:29.301Z,83.09
2022-11-20T18:45:31.066Z,82.92
2022-11-20T18:47:36.786Z,82.53
2022-11-20T18:49:38.493Z,82.51
2022-11-20T18:51:43.467Z,82.64
2022-11-20T18:53:47.528Z,82.68
2022-11-20T18:55:49.514Z,82.87
2022-11-20T18:57:50.976Z,82.91
2022-11-20T18:59:53.417Z,82.86
2022-11-20T19:01:54.935Z,83.09
2022-11-20T19:03:57.342Z,82.90
2022-11-20T19:05:58.786Z,82.84
2022-11-20T19:08:00.179Z,82.46
2022-11-20T19:10:04.149Z,82.32
2022-11-20T19:12:08.315Z,82.36
2022-11-20T19:14:09.889Z,82.30
2022-11-20T19:16:17.480Z,82.28
2022-11-20T19:18:19.062Z,82.35
2022-11-20T19:20:20.678Z,82.57
2022-11-20T19:22:22.361Z,83.03
2022-11-20T19:24:24.142Z,82.88
2022-11-20T19:26:26.281Z,83.03
2022-11-20T19:28:34.430Z,82.98
2022-11-20T19:30:35.911Z,82.98
2022-11-20T19:32:37.359Z,83.10
2022-11-20T19:34:38.705Z,82.87
2022-11-20T19:36:44.731Z,82.88
2022-11-20T19:38:49.536Z,82.73
2022-11-20T19:40:51.146Z,83.02
2022-11-20T19:42:52.621Z,82.79
2022-11-20T19:44:54.068Z,82.94
2022-11-20T19:46:56.736Z,82.91
2022-11-20T19:48:59.072Z,83.09
2022-11-20T19:51:09.265Z,83.01
2022-11-20T19:53:11.147Z,83.31
2022-11-20T19:55:12.650Z,83.25
2022-11-20T19:57:14.130Z,83.35
2022-11-20T19:59:15.922Z,83.58
2022-11-20T20:01:20.554Z,83.71
2022-11-20T20:03:22.581Z,83.78
2022-11-20T20:05:24.027Z,83.51
2022-11-20T20:07:25.590Z,83.35
2022-11-20T20:09:27.123Z,83.44
2022-11-20T20:11:32.142Z,84.14
2022-11-20T20:13:33.581Z,83.85
2022-11-20T20:15:40.570Z,83.99
2022-11-20T20:17:42.041Z,84.31
2022-11-20T20:19:43.557Z,84.12
2022-11-20T20:21:44.994Z,83.89
2022-11-20T20:23:52.730Z,83.78
2022-11-20T20:25:54.779Z,83.43
2022-11-20T20:27:56.858Z,83.67
2022-11-20T20:29:58.273Z,83.49
2022-11-20T20:32:00.360Z,83.84
2022-11-20T20:34:04.684Z,83.86
2022-11-20T20:36:08.356Z,84.05
2022-11-20T20:38:09.749Z,84.24
2022-11-20T20:40:15.174Z,84.11
2022-11-20T20:42:17.012Z,84.45
2022-11-20T20:44:37.502Z,84.08
2022-11-20T20:46:39.981Z,84.06
2022-11-20T20:48:41.429Z,84.11
2022-11-20T20:50:52.112Z,84.05
2022-11-20T20:52:53.557Z,84.39
2022-11-20T20:54:55.264Z,84.31
2022-11-20T20:56:56.749Z,84.37
2022-11-20T20:58:58.322Z,84.38
2022-11-20T21:01:12.280Z,84.32
2022-11-20T21:03:13.767Z,84.43
2022-11-20T21:05:15.186Z,84.47
2022-11-20T21:07:17.797Z,84.46
2022-11-20T21:09:19.840Z,84.49
2022-11-20T21:11:21.251Z,84.68
2022-11-20T21:13:23.388Z,84.52
2022-11-20T21:15:24.988Z,84.46
2022-11-20T21:17:26.485Z,84.22
2022-11-20T21:19:27.985Z,84.19
2022-11-20T21:21:48.019Z,83.87
2022-11-20T21:23:50.710Z,83.68
2022-11-20T21:25:52.393Z,83.84
2022-11-20T21:27:53.770Z,84.01
2022-11-20T21:29:55.191Z,84.01
2022-11-20T21:31:57.821Z,84.34
2022-11-20T21:34:00.505Z,84.32
2022-11-20T21:36:03.434Z,84.31
2022-11-20T21:38:04.877Z,84.19
2022-11-20T21:40:06.984Z,84.20
2022-11-20T21:42:08.580Z,84.08
2022-11-20T21:46:38.365Z,84.26
2022-11-20T21:48:41.008Z,84.46
2022-11-20T21:53:42.664Z,84.22
2022-11-20T21:55:52.671Z,84.10
2022-11-20T21:57:54.129Z,84.04
2022-11-20T21:59:55.600Z,83.80
2022-11-20T22:01:57.119Z,83.94
2022-11-20T22:04:02.099Z,83.94
2022-11-20T22:06:04.061Z,83.97
2022-11-20T22:08:05.726Z,83.92
2022-11-20T22:10:07.482Z,83.91
2022-11-20T22:12:08.902Z,84.11
2022-11-20T22:14:19.862Z,83.96
2022-11-20T22:16:21.773Z,83.80
2022-11-20T22:18:23.178Z,83.85
2022-11-20T22:20:24.570Z,83.82
2022-11-20T22:22:26.019Z,84.10
2022-11-20T22:24:27.781Z,83.86
2022-11-20T22:26:33.892Z,84.22
2022-11-20T22:28:39.940Z,84.35
2022-11-20T22:30:41.546Z,84.38
2022-11-20T22:32:42.940Z,84.90
2022-11-20T22:34:44.411Z,85.15
2022-11-20T22:36:45.981Z,85.61
2022-11-20T22:38:48.051Z,85.44
2022-11-20T22:40:49.492Z,85.08
2022-11-20T22:42:50.885Z,85.19
2022-11-20T22:44:52.435Z,85.44
2022-11-20T22:46:53.942Z,85.30
2022-11-20T22:48:58.262Z,85.33
2022-11-20T22:51:01.744Z,85.58
2022-11-20T22:53:03.241Z,85.63
2022-11-20T22:55:05.156Z,85.95
2022-11-20T22:57:06.614Z,85.66
2022-11-20T22:59:08.523Z,85.85
2022-11-20T23:01:14.067Z,85.60
2022-11-20T23:03:15.495Z,85.51
2022-11-20T23:05:16.953Z,85.90
2022-11-20T23:07:18.417Z,85.73
2022-11-20T23:09:19.921Z,85.96
2022-11-20T23:11:27.182Z,86.42
2022-11-20T23:13:29.276Z,86.17
2022-11-20T23:15:32.992Z,86.36
2022-11-20T23:17:34.453Z,85.95
2022-11-20T23:19:35.857Z,86.15
2022-11-20T23:21:39.035Z,86.34
2022-11-20T23:23:41.525Z,86.12
2022-11-20T23:25:43.113Z,85.86
2022-11-20T23:27:44.699Z,86.16
2022-11-20T23:29:46.155Z,85.94
2022-11-20T23:31:47.661Z,86.70
2022-11-20T23:33:49.304Z,86.41
2022-11-20T23:35:51.409Z,86.34
2022-11-20T23:37:52.832Z,86.77
2022-11-20T23:39:54.307Z,86.94
2022-11-20T23:41:55.704Z,86.31
2022-11-20T23:43:57.074Z,86.03
2022-11-20T23:46:00.249Z,85.98
2022-11-20T23:48:01.621Z,86.15
2022-11-20T23:50:03.292Z,86.31
2022-11-20T23:52:04.651Z,86.65
2022-11-20T23:54:06.183Z,86.42
2022-11-20T23:56:07.687Z,86.51
2022-11-20T23:58:09.198Z,86.68
